sensor_id;sensor_type;location;lat;lon;timestamp;temperature;humidity
7920;DHT22;18778;47.610;9.776;2023-07-13T00:01:12;16.70;99.90
7920;DHT22;18778;47.610;9.776;2023-07-13T00:03:38;16.70;99.90
7920;DHT22;18778;47.610;9.776;2023-07-13T00:06:07;16.70;99.90
7920;DHT22;18778;47.610;9.776;2023-07-13T00:08:33;16.70;99.90
7920;DHT22;18778;47.610;9.776;2023-07-13T00:11:03;16.60;99.90
7920;DHT22;18778;47.610;9.776;2023-07-13T00:13:30;16.60;99.90
7920;DHT22;18778;47.610;9.776;2023-07-13T00:15:57;16.60;99.90
7920;DHT22;18778;47.610;9.776;2023-07-13T00:18:23;16.60;99.90
7920;DHT22;18778;47.610;9.776;2023-07-13T00:20:49;16.70;99.90
7920;DHT22;18778;47.610;9.776;2023-07-13T00:23:15;16.70;99.90
7920;DHT22;18778;47.610;9.776;2023-07-13T00:25:42;16.80;99.90
7920;DHT22;18778;47.610;9.776;2023-07-13T00:28:08;16.80;99.90
7920;DHT22;18778;47.610;9.776;2023-07-13T00:30:34;16.90;99.90
7920;DHT22;18778;47.610;9.776;2023-07-13T00:32:59;16.90;99.90
7920;DHT22;18778;47.610;9.776;2023-07-13T00:35:26;17.00;99.90
7920;DHT22;18778;47.610;9.776;2023-07-13T00:37:52;17.00;99.90
7920;DHT22;18778;47.610;9.776;2023-07-13T00:40:18;17.00;99.90
7920;DHT22;18778;47.610;9.776;2023-07-13T00:42:43;16.90;99.90
7920;DHT22;18778;47.610;9.776;2023-07-13T00:47:39;16.80;99.90
7920;DHT22;18778;47.610;9.776;2023-07-13T00:50:07;16.80;99.90
7920;DHT22;18778;47.610;9.776;2023-07-13T00:52:36;16.80;99.90
7920;DHT22;18778;47.610;9.776;2023-07-13T00:55:03;16.80;99.90
7920;DHT22;18778;47.610;9.776;2023-07-13T00:57:29;16.80;99.90
7920;DHT22;18778;47.610;9.776;2023-07-13T01:00:02;16.80;99.90
7920;DHT22;18778;47.610;9.776;2023-07-13T01:02:30;16.80;99.90
7920;DHT22;18778;47.610;9.776;2023-07-13T01:04:56;16.80;99.90
7920;DHT22;18778;47.610;9.776;2023-07-13T01:07:22;16.80;99.90
7920;DHT22;18778;47.610;9.776;2023-07-13T01:09:48;16.90;99.90
7920;DHT22;18778;47.610;9.776;2023-07-13T01:12:14;16.90;99.90
7920;DHT22;18778;47.610;9.776;2023-07-13T01:14:39;16.90;99.90
7920;DHT22;18778;47.610;9.776;2023-07-13T01:17:09;17.00;99.90
7920;DHT22;18778;47.610;9.776;2023-07-13T01:19:41;17.00;99.90
7920;DHT22;18778;47.610;9.776;2023-07-13T01:22:14;17.00;99.90
7920;DHT22;18778;47.610;9.776;2023-07-13T01:24:42;17.00;99.90
7920;DHT22;18778;47.610;9.776;2023-07-13T01:27:11;17.00;99.90
7920;DHT22;18778;47.610;9.776;2023-07-13T01:29:39;16.90;99.90
7920;DHT22;18778;47.610;9.776;2023-07-13T01:32:09;16.90;99.90
7920;DHT22;18778;47.610;9.776;2023-07-13T01:34:35;16.90;99.90
7920;DHT22;18778;47.610;9.776;2023-07-13T01:37:00;16.80;99.90
7920;DHT22;18778;47.610;9.776;2023-07-13T01:39:26;16.80;99.90
7920;DHT22;18778;47.610;9.776;2023-07-13T01:41:52;16.70;99.90
7920;DHT22;18778;47.610;9.776;2023-07-13T01:44:17;16.70;99.90
7920;DHT22;18778;47.610;9.776;2023-07-13T01:46:43;16.70;99.90
7920;DHT22;18778;47.610;9.776;2023-07-13T01:49:08;16.70;99.90
7920;DHT22;18778;47.610;9.776;2023-07-13T01:51:34;17.40;99.90
7920;DHT22;18778;47.610;9.776;2023-07-13T01:53:59;16.70;99.90
7920;DHT22;18778;47.610;9.776;2023-07-13T01:56:25;16.70;99.90
7920;DHT22;18778;47.610;9.776;2023-07-13T01:58:52;16.60;99.90
7920;DHT22;18778;47.610;9.776;2023-07-13T02:01:17;16.60;99.90
7920;DHT22;18778;47.610;9.776;2023-07-13T02:03:43;16.60;99.90
7920;DHT22;18778;47.610;9.776;2023-07-13T02:06:09;16.50;99.90
7920;DHT22;18778;47.610;9.776;2023-07-13T02:08:34;16.60;99.90
7920;DHT22;18778;47.610;9.776;2023-07-13T02:11:02;16.70;99.90
7920;DHT22;18778;47.610;9.776;2023-07-13T02:13:27;16.70;99.90
7920;DHT22;18778;47.610;9.776;2023-07-13T02:15:53;16.70;99.90
7920;DHT22;18778;47.610;9.776;2023-07-13T02:18:18;16.70;99.90
7920;DHT22;18778;47.610;9.776;2023-07-13T02:20:44;16.50;99.90
7920;DHT22;18778;47.610;9.776;2023-07-13T02:23:10;16.50;99.90
7920;DHT22;18778;47.610;9.776;2023-07-13T02:25:36;16.50;99.90
7920;DHT22;18778;47.610;9.776;2023-07-13T02:28:02;16.50;99.90
7920;DHT22;18778;47.610;9.776;2023-07-13T02:30:29;16.40;99.90
7920;DHT22;18778;47.610;9.776;2023-07-13T02:32:56;16.30;99.90
7920;DHT22;18778;47.610;9.776;2023-07-13T02:35:21;16.20;99.90
7920;DHT22;18778;47.610;9.776;2023-07-13T02:37:47;16.20;99.90
7920;DHT22;18778;47.610;9.776;2023-07-13T02:40:13;16.10;99.90
7920;DHT22;18778;47.610;9.776;2023-07-13T02:42:39;16.10;99.90
7920;DHT22;18778;47.610;9.776;2023-07-13T02:45:06;16.10;99.90
7920;DHT22;18778;47.610;9.776;2023-07-13T02:47:33;16.00;99.90
7920;DHT22;18778;47.610;9.776;2023-07-13T02:54:50;16.20;99.90
7920;DHT22;18778;47.610;9.776;2023-07-13T02:57:16;16.20;99.90
7920;DHT22;18778;47.610;9.776;2023-07-13T02:59:42;16.30;99.90
7920;DHT22;18778;47.610;9.776;2023-07-13T03:02:07;16.30;99.90
7920;DHT22;18778;47.610;9.776;2023-07-13T03:04:36;16.40;99.90
7920;DHT22;18778;47.610;9.776;2023-07-13T03:07:02;16.40;99.90
7920;DHT22;18778;47.610;9.776;2023-07-13T03:09:27;16.40;99.90
7920;DHT22;18778;47.610;9.776;2023-07-13T03:11:54;16.40;99.90
7920;DHT22;18778;47.610;9.776;2023-07-13T03:14:21;16.50;99.90
7920;DHT22;18778;47.610;9.776;2023-07-13T03:16:47;16.50;99.90
7920;DHT22;18778;47.610;9.776;2023-07-13T03:19:13;16.50;99.90
7920;DHT22;18778;47.610;9.776;2023-07-13T03:21:38;16.50;99.90
7920;DHT22;18778;47.610;9.776;2023-07-13T03:24:05;16.50;99.90
7920;DHT22;18778;47.610;9.776;2023-07-13T03:26:30;16.50;99.90
7920;DHT22;18778;47.610;9.776;2023-07-13T03:28:57;16.50;99.90
7920;DHT22;18778;47.610;9.776;2023-07-13T03:31:25;16.50;99.90
7920;DHT22;18778;47.610;9.776;2023-07-13T03:33:52;16.50;99.90
7920;DHT22;18778;47.610;9.776;2023-07-13T03:36:23;16.60;99.90
7920;DHT22;18778;47.610;9.776;2023-07-13T03:38:51;16.60;99.90
7920;DHT22;18778;47.610;9.776;2023-07-13T03:41:17;16.60;99.90
7920;DHT22;18778;47.610;9.776;2023-07-13T03:43:43;16.70;99.90
7920;DHT22;18778;47.610;9.776;2023-07-13T03:46:09;16.60;99.90
7920;DHT22;18778;47.610;9.776;2023-07-13T03:48:35;16.60;99.90
7920;DHT22;18778;47.610;9.776;2023-07-13T03:51:01;16.60;99.90
7920;DHT22;18778;47.610;9.776;2023-07-13T03:53:27;16.60;99.90
7920;DHT22;18778;47.610;9.776;2023-07-13T03:55:52;16.70;99.90
7920;DHT22;18778;47.610;9.776;2023-07-13T03:58:30;16.70;99.90
7920;DHT22;18778;47.610;9.776;2023-07-13T04:00:56;16.70;99.90
7920;DHT22;18778;47.610;9.776;2023-07-13T04:03:23;16.70;99.90
7920;DHT22;18778;47.610;9.776;2023-07-13T04:05:49;16.70;99.90
7920;DHT22;18778;47.610;9.776;2023-07-13T04:10:42;16.80;99.90
7920;DHT22;18778;47.610;9.776;2023-07-13T04:13:08;16.90;99.90
7920;DHT22;18778;47.610;9.776;2023-07-13T04:15:33;16.90;99.90
7920;DHT22;18778;47.610;9.776;2023-07-13T04:17:59;16.90;99.90
7920;DHT22;18778;47.610;9.776;2023-07-13T04:20:25;16.80;99.90
7920;DHT22;18778;47.610;9.776;2023-07-13T04:22:52;17.00;99.90
7920;DHT22;18778;47.610;9.776;2023-07-13T04:25:20;16.90;99.90
7920;DHT22;18778;47.610;9.776;2023-07-13T04:27:45;17.00;99.90
7920;DHT22;18778;47.610;9.776;2023-07-13T04:30:11;16.90;99.90
7920;DHT22;18778;47.610;9.776;2023-07-13T04:32:37;16.90;99.90
7920;DHT22;18778;47.610;9.776;2023-07-13T04:35:02;17.00;99.90
7920;DHT22;18778;47.610;9.776;2023-07-13T04:37:29;16.90;99.90
7920;DHT22;18778;47.610;9.776;2023-07-13T04:39:55;16.90;99.90
7920;DHT22;18778;47.610;9.776;2023-07-13T04:42:20;16.90;99.90
7920;DHT22;18778;47.610;9.776;2023-07-13T04:44:50;16.90;99.90
7920;DHT22;18778;47.610;9.776;2023-07-13T04:47:17;16.80;99.90
7920;DHT22;18778;47.610;9.776;2023-07-13T04:49:42;16.70;99.90
7920;DHT22;18778;47.610;9.776;2023-07-13T04:52:08;16.70;99.90
7920;DHT22;18778;47.610;9.776;2023-07-13T04:54:34;16.70;99.90
7920;DHT22;18778;47.610;9.776;2023-07-13T04:57:00;16.60;99.90
7920;DHT22;18778;47.610;9.776;2023-07-13T04:59:26;16.70;99.90
7920;DHT22;18778;47.610;9.776;2023-07-13T05:01:52;16.70;99.90
7920;DHT22;18778;47.610;9.776;2023-07-13T05:04:18;16.70;99.90
7920;DHT22;18778;47.610;9.776;2023-07-13T05:06:44;16.80;99.90
7920;DHT22;18778;47.610;9.776;2023-07-13T05:11:45;16.80;99.90
7920;DHT22;18778;47.610;9.776;2023-07-13T05:14:11;16.80;99.90
7920;DHT22;18778;47.610;9.776;2023-07-13T05:16:36;16.90;99.90
7920;DHT22;18778;47.610;9.776;2023-07-13T05:19:02;18.00;99.90
7920;DHT22;18778;47.610;9.776;2023-07-13T05:21:28;17.60;99.90
7920;DHT22;18778;47.610;9.776;2023-07-13T05:23:54;16.90;99.90
7920;DHT22;18778;47.610;9.776;2023-07-13T05:26:19;16.90;99.90
7920;DHT22;18778;47.610;9.776;2023-07-13T05:28:46;16.90;99.90
7920;DHT22;18778;47.610;9.776;2023-07-13T05:31:12;16.90;99.90
7920;DHT22;18778;47.610;9.776;2023-07-13T05:36:04;16.90;99.90
7920;DHT22;18778;47.610;9.776;2023-07-13T05:38:30;17.00;99.90
7920;DHT22;18778;47.610;9.776;2023-07-13T05:40:56;17.30;99.90
7920;DHT22;18778;47.610;9.776;2023-07-13T05:43:23;16.90;99.90
7920;DHT22;18778;47.610;9.776;2023-07-13T05:45:48;16.90;99.90
7920;DHT22;18778;47.610;9.776;2023-07-13T05:48:15;16.90;99.90
7920;DHT22;18778;47.610;9.776;2023-07-13T05:50:41;16.90;99.90
7920;DHT22;18778;47.610;9.776;2023-07-13T05:53:06;17.50;99.90
7920;DHT22;18778;47.610;9.776;2023-07-13T05:55:32;17.00;99.90
7920;DHT22;18778;47.610;9.776;2023-07-13T05:58:06;17.10;99.90
7920;DHT22;18778;47.610;9.776;2023-07-13T06:00:32;17.10;99.90
7920;DHT22;18778;47.610;9.776;2023-07-13T06:02:57;18.20;99.90
7920;DHT22;18778;47.610;9.776;2023-07-13T06:05:24;17.00;99.90
7920;DHT22;18778;47.610;9.776;2023-07-13T06:07:49;17.00;99.90
7920;DHT22;18778;47.610;9.776;2023-07-13T06:10:15;17.20;99.90
7920;DHT22;18778;47.610;9.776;2023-07-13T06:12:40;18.00;99.90
7920;DHT22;18778;47.610;9.776;2023-07-13T06:15:06;17.10;99.90
7920;DHT22;18778;47.610;9.776;2023-07-13T06:17:32;17.10;99.90
7920;DHT22;18778;47.610;9.776;2023-07-13T06:19:58;17.90;99.90
7920;DHT22;18778;47.610;9.776;2023-07-13T06:22:23;17.00;99.90
7920;DHT22;18778;47.610;9.776;2023-07-13T06:24:49;17.00;99.90
7920;DHT22;18778;47.610;9.776;2023-07-13T06:27:14;17.10;99.90
7920;DHT22;18778;47.610;9.776;2023-07-13T06:29:40;17.20;99.90
7920;DHT22;18778;47.610;9.776;2023-07-13T06:32:06;17.90;99.90
7920;DHT22;18778;47.610;9.776;2023-07-13T06:34:31;17.60;99.90
7920;DHT22;18778;47.610;9.776;2023-07-13T06:36:57;17.80;99.90
7920;DHT22;18778;47.610;9.776;2023-07-13T06:39:23;18.20;99.90
7920;DHT22;18778;47.610;9.776;2023-07-13T06:41:48;18.60;99.90
7920;DHT22;18778;47.610;9.776;2023-07-13T06:44:14;18.00;99.90
7920;DHT22;18778;47.610;9.776;2023-07-13T06:46:39;18.20;99.90
7920;DHT22;18778;47.610;9.776;2023-07-13T06:49:05;17.90;99.90
7920;DHT22;18778;47.610;9.776;2023-07-13T06:51:30;17.10;99.90
7920;DHT22;18778;47.610;9.776;2023-07-13T06:53:56;18.30;99.90
7920;DHT22;18778;47.610;9.776;2023-07-13T06:56:22;17.90;99.90
7920;DHT22;18778;47.610;9.776;2023-07-13T06:58:47;17.80;99.90
7920;DHT22;18778;47.610;9.776;2023-07-13T07:01:13;17.70;99.90
7920;DHT22;18778;47.610;9.776;2023-07-13T07:03:38;18.10;99.90
7920;DHT22;18778;47.610;9.776;2023-07-13T07:06:18;17.90;99.90
7920;DHT22;18778;47.610;9.776;2023-07-13T07:08:44;17.70;99.90
7920;DHT22;18778;47.610;9.776;2023-07-13T07:11:16;17.60;99.90
7920;DHT22;18778;47.610;9.776;2023-07-13T07:13:42;17.70;99.90
7920;DHT22;18778;47.610;9.776;2023-07-13T07:16:08;17.70;99.90
7920;DHT22;18778;47.610;9.776;2023-07-13T07:18:34;17.90;99.90
7920;DHT22;18778;47.610;9.776;2023-07-13T07:21:00;18.10;99.90
7920;DHT22;18778;47.610;9.776;2023-07-13T07:23:25;18.20;99.90
7920;DHT22;18778;47.610;9.776;2023-07-13T07:25:51;18.20;99.90
7920;DHT22;18778;47.610;9.776;2023-07-13T07:28:18;18.30;99.90
7920;DHT22;18778;47.610;9.776;2023-07-13T07:30:47;18.30;99.90
7920;DHT22;18778;47.610;9.776;2023-07-13T07:33:13;18.30;99.90
7920;DHT22;18778;47.610;9.776;2023-07-13T07:35:39;18.20;99.90
7920;DHT22;18778;47.610;9.776;2023-07-13T07:38:05;18.70;99.90
7920;DHT22;18778;47.610;9.776;2023-07-13T07:40:30;18.20;99.90
7920;DHT22;18778;47.610;9.776;2023-07-13T07:42:57;18.20;99.90
7920;DHT22;18778;47.610;9.776;2023-07-13T07:45:22;18.20;99.90
7920;DHT22;18778;47.610;9.776;2023-07-13T07:47:49;18.20;99.90
7920;DHT22;18778;47.610;9.776;2023-07-13T07:50:14;18.00;99.90
7920;DHT22;18778;47.610;9.776;2023-07-13T07:52:40;17.90;99.90
7920;DHT22;18778;47.610;9.776;2023-07-13T07:55:06;17.80;99.90
7920;DHT22;18778;47.610;9.776;2023-07-13T07:57:32;17.80;99.90
7920;DHT22;18778;47.610;9.776;2023-07-13T07:59:58;17.90;99.90
7920;DHT22;18778;47.610;9.776;2023-07-13T08:02:24;17.80;99.90
7920;DHT22;18778;47.610;9.776;2023-07-13T08:04:50;17.80;99.90
7920;DHT22;18778;47.610;9.776;2023-07-13T08:07:16;17.90;99.90
7920;DHT22;18778;47.610;9.776;2023-07-13T08:09:41;18.00;99.90
7920;DHT22;18778;47.610;9.776;2023-07-13T08:12:07;18.20;99.90
7920;DHT22;18778;47.610;9.776;2023-07-13T08:14:33;18.20;99.90
7920;DHT22;18778;47.610;9.776;2023-07-13T08:16:58;18.30;99.90
7920;DHT22;18778;47.610;9.776;2023-07-13T08:19:24;18.30;99.90
7920;DHT22;18778;47.610;9.776;2023-07-13T08:21:49;18.40;99.90
7920;DHT22;18778;47.610;9.776;2023-07-13T08:24:15;18.50;99.90
7920;DHT22;18778;47.610;9.776;2023-07-13T08:26:41;18.60;99.90
7920;DHT22;18778;47.610;9.776;2023-07-13T08:29:06;18.60;99.90
7920;DHT22;18778;47.610;9.776;2023-07-13T08:31:32;18.60;99.90
7920;DHT22;18778;47.610;9.776;2023-07-13T08:33:57;18.70;99.90
7920;DHT22;18778;47.610;9.776;2023-07-13T08:36:25;18.50;99.90
7920;DHT22;18778;47.610;9.776;2023-07-13T08:38:51;18.60;99.90
7920;DHT22;18778;47.610;9.776;2023-07-13T08:41:17;18.50;99.90
7920;DHT22;18778;47.610;9.776;2023-07-13T08:43:47;19.00;99.90
7920;DHT22;18778;47.610;9.776;2023-07-13T08:46:34;18.50;99.90
7920;DHT22;18778;47.610;9.776;2023-07-13T08:49:13;18.80;99.90
7920;DHT22;18778;47.610;9.776;2023-07-13T08:54:23;18.90;99.90
7920;DHT22;18778;47.610;9.776;2023-07-13T08:56:53;19.00;99.90
7920;DHT22;18778;47.610;9.776;2023-07-13T08:59:22;19.00;99.90
7920;DHT22;18778;47.610;9.776;2023-07-13T09:04:48;19.20;99.90
7920;DHT22;18778;47.610;9.776;2023-07-13T09:10:21;19.40;99.90
7920;DHT22;18778;47.610;9.776;2023-07-13T09:15:43;19.40;99.90
7920;DHT22;18778;47.610;9.776;2023-07-13T09:18:19;19.60;99.90
7920;DHT22;18778;47.610;9.776;2023-07-13T09:20:54;19.70;99.90
7920;DHT22;18778;47.610;9.776;2023-07-13T09:23:23;20.30;99.90
7920;DHT22;18778;47.610;9.776;2023-07-13T09:26:17;20.30;99.90
7920;DHT22;18778;47.610;9.776;2023-07-13T09:28:47;20.60;99.90
7920;DHT22;18778;47.610;9.776;2023-07-13T09:36:25;20.00;99.90
7920;DHT22;18778;47.610;9.776;2023-07-13T09:39:13;20.10;99.90
7920;DHT22;18778;47.610;9.776;2023-07-13T09:42:00;20.30;99.90
7920;DHT22;18778;47.610;9.776;2023-07-13T09:44:28;20.80;99.90
7920;DHT22;18778;47.610;9.776;2023-07-13T09:49:35;21.60;99.90
7920;DHT22;18778;47.610;9.776;2023-07-13T09:52:12;21.90;99.90
7920;DHT22;18778;47.610;9.776;2023-07-13T09:57:15;22.10;99.90
7920;DHT22;18778;47.610;9.776;2023-07-13T09:59:45;22.30;99.90
7920;DHT22;18778;47.610;9.776;2023-07-13T10:02:28;22.00;99.90
7920;DHT22;18778;47.610;9.776;2023-07-13T10:05:00;22.00;99.90
7920;DHT22;18778;47.610;9.776;2023-07-13T10:10:29;22.80;99.90
7920;DHT22;18778;47.610;9.776;2023-07-13T10:18:50;23.30;99.90
7920;DHT22;18778;47.610;9.776;2023-07-13T10:21:18;23.60;99.90
7920;DHT22;18778;47.610;9.776;2023-07-13T10:24:12;24.00;99.90
7920;DHT22;18778;47.610;9.776;2023-07-13T10:27:10;24.30;99.90
7920;DHT22;18778;47.610;9.776;2023-07-13T10:29:43;24.30;99.90
7920;DHT22;18778;47.610;9.776;2023-07-13T10:32:12;24.70;99.90
7920;DHT22;18778;47.610;9.776;2023-07-13T10:34:39;24.90;99.90
7920;DHT22;18778;47.610;9.776;2023-07-13T10:37:07;24.90;99.90
7920;DHT22;18778;47.610;9.776;2023-07-13T10:39:41;24.90;99.90
7920;DHT22;18778;47.610;9.776;2023-07-13T10:42:10;24.60;99.90
7920;DHT22;18778;47.610;9.776;2023-07-13T10:44:38;24.10;99.90
7920;DHT22;18778;47.610;9.776;2023-07-13T10:47:08;23.70;99.90
7920;DHT22;18778;47.610;9.776;2023-07-13T10:49:36;23.50;99.90
7920;DHT22;18778;47.610;9.776;2023-07-13T10:52:03;23.10;99.90
7920;DHT22;18778;47.610;9.776;2023-07-13T10:54:33;22.90;99.90
7920;DHT22;18778;47.610;9.776;2023-07-13T10:57:19;22.80;99.90
7920;DHT22;18778;47.610;9.776;2023-07-13T11:02:30;23.20;99.90
7920;DHT22;18778;47.610;9.776;2023-07-13T11:04:56;23.60;99.90
7920;DHT22;18778;47.610;9.776;2023-07-13T11:07:31;24.10;99.90
7920;DHT22;18778;47.610;9.776;2023-07-13T11:10:04;24.40;99.90
7920;DHT22;18778;47.610;9.776;2023-07-13T11:12:53;24.50;99.90
7920;DHT22;18778;47.610;9.776;2023-07-13T11:15:45;24.30;99.90
7920;DHT22;18778;47.610;9.776;2023-07-13T11:18:21;24.20;99.90
7920;DHT22;18778;47.610;9.776;2023-07-13T11:20:48;24.70;99.90
7920;DHT22;18778;47.610;9.776;2023-07-13T11:25:43;24.70;99.90
7920;DHT22;18778;47.610;9.776;2023-07-13T11:36:05;24.10;99.90
7920;DHT22;18778;47.610;9.776;2023-07-13T11:38:43;23.90;99.90
7920;DHT22;18778;47.610;9.776;2023-07-13T11:41:19;24.00;99.90
7920;DHT22;18778;47.610;9.776;2023-07-13T11:43:50;24.10;99.90
7920;DHT22;18778;47.610;9.776;2023-07-13T11:46:26;23.80;99.90
7920;DHT22;18778;47.610;9.776;2023-07-13T11:48:53;23.70;99.90
7920;DHT22;18778;47.610;9.776;2023-07-13T11:51:28;23.70;99.90
7920;DHT22;18778;47.610;9.776;2023-07-13T11:53:55;23.80;99.90
7920;DHT22;18778;47.610;9.776;2023-07-13T11:56:23;24.10;99.90
7920;DHT22;18778;47.610;9.776;2023-07-13T11:58:51;24.10;99.90
7920;DHT22;18778;47.610;9.776;2023-07-13T12:01:23;24.30;99.90
7920;DHT22;18778;47.610;9.776;2023-07-13T12:03:51;24.70;99.90
7920;DHT22;18778;47.610;9.776;2023-07-13T12:06:30;24.90;99.90
7920;DHT22;18778;47.610;9.776;2023-07-13T12:09:00;24.80;99.90
7920;DHT22;18778;47.610;9.776;2023-07-13T12:11:27;24.60;99.90
7920;DHT22;18778;47.610;9.776;2023-07-13T12:13:53;24.70;99.90
7920;DHT22;18778;47.610;9.776;2023-07-13T12:16:24;24.60;99.90
7920;DHT22;18778;47.610;9.776;2023-07-13T12:18:52;24.80;99.90
7920;DHT22;18778;47.610;9.776;2023-07-13T12:21:19;24.80;99.90
7920;DHT22;18778;47.610;9.776;2023-07-13T12:23:49;24.70;99.90
7920;DHT22;18778;47.610;9.776;2023-07-13T12:26:15;24.80;99.90
7920;DHT22;18778;47.610;9.776;2023-07-13T12:28:51;24.80;99.90
7920;DHT22;18778;47.610;9.776;2023-07-13T12:31:47;24.80;99.90
7920;DHT22;18778;47.610;9.776;2023-07-13T12:34:15;24.90;99.90
7920;DHT22;18778;47.610;9.776;2023-07-13T12:36:53;24.80;99.90
7920;DHT22;18778;47.610;9.776;2023-07-13T12:39:21;25.00;99.90
7920;DHT22;18778;47.610;9.776;2023-07-13T12:41:50;25.70;99.90
7920;DHT22;18778;47.610;9.776;2023-07-13T12:44:25;25.90;99.90
7920;DHT22;18778;47.610;9.776;2023-07-13T12:46:57;25.90;99.90
7920;DHT22;18778;47.610;9.776;2023-07-13T12:49:28;26.00;99.90
7920;DHT22;18778;47.610;9.776;2023-07-13T12:52:16;26.40;99.90
7920;DHT22;18778;47.610;9.776;2023-07-13T12:54:53;26.30;99.90
7920;DHT22;18778;47.610;9.776;2023-07-13T12:57:23;26.10;99.90
7920;DHT22;18778;47.610;9.776;2023-07-13T12:59:52;25.90;99.90
7920;DHT22;18778;47.610;9.776;2023-07-13T13:02:33;26.10;99.90
7920;DHT22;18778;47.610;9.776;2023-07-13T13:05:00;26.20;99.90
7920;DHT22;18778;47.610;9.776;2023-07-13T13:07:26;25.70;99.90
7920;DHT22;18778;47.610;9.776;2023-07-13T13:09:52;25.30;99.90
7920;DHT22;18778;47.610;9.776;2023-07-13T13:12:22;25.00;99.90
7920;DHT22;18778;47.610;9.776;2023-07-13T13:14:51;24.80;99.90
7920;DHT22;18778;47.610;9.776;2023-07-13T13:17:21;24.60;99.90
7920;DHT22;18778;47.610;9.776;2023-07-13T13:19:47;24.30;99.90
7920;DHT22;18778;47.610;9.776;2023-07-13T13:22:13;24.10;99.90
7920;DHT22;18778;47.610;9.776;2023-07-13T13:24:39;23.60;99.90
7920;DHT22;18778;47.610;9.776;2023-07-13T13:27:05;23.50;99.90
7920;DHT22;18778;47.610;9.776;2023-07-13T13:29:31;23.40;99.90
7920;DHT22;18778;47.610;9.776;2023-07-13T13:31:58;23.40;99.90
7920;DHT22;18778;47.610;9.776;2023-07-13T13:34:24;23.60;99.90
7920;DHT22;18778;47.610;9.776;2023-07-13T13:36:51;23.80;99.90
7920;DHT22;18778;47.610;9.776;2023-07-13T13:39:30;23.90;99.90
7920;DHT22;18778;47.610;9.776;2023-07-13T13:41:57;24.30;99.90
7920;DHT22;18778;47.610;9.776;2023-07-13T13:44:23;24.50;99.90
7920;DHT22;18778;47.610;9.776;2023-07-13T13:46:52;24.50;99.90
7920;DHT22;18778;47.610;9.776;2023-07-13T13:49:22;24.60;99.90
7920;DHT22;18778;47.610;9.776;2023-07-13T13:51:49;24.50;99.90
7920;DHT22;18778;47.610;9.776;2023-07-13T13:54:16;24.70;99.90
7920;DHT22;18778;47.610;9.776;2023-07-13T13:56:47;24.80;99.90
7920;DHT22;18778;47.610;9.776;2023-07-13T13:59:14;24.80;99.90
7920;DHT22;18778;47.610;9.776;2023-07-13T14:01:41;24.60;99.90
7920;DHT22;18778;47.610;9.776;2023-07-13T14:04:13;24.70;99.90
7920;DHT22;18778;47.610;9.776;2023-07-13T14:06:40;25.10;99.90
7920;DHT22;18778;47.610;9.776;2023-07-13T14:09:10;25.10;99.90
7920;DHT22;18778;47.610;9.776;2023-07-13T14:11:36;25.50;99.90
7920;DHT22;18778;47.610;9.776;2023-07-13T14:14:02;26.10;99.90
7920;DHT22;18778;47.610;9.776;2023-07-13T14:16:31;26.50;99.90
7920;DHT22;18778;47.610;9.776;2023-07-13T14:18:58;27.60;99.90
7920;DHT22;18778;47.610;9.776;2023-07-13T14:21:27;29.10;99.90
7920;DHT22;18778;47.610;9.776;2023-07-13T14:23:53;29.90;99.90
7920;DHT22;18778;47.610;9.776;2023-07-13T14:26:24;29.40;99.90
7920;DHT22;18778;47.610;9.776;2023-07-13T14:28:54;28.80;99.90
7920;DHT22;18778;47.610;9.776;2023-07-13T14:31:22;28.60;99.90
7920;DHT22;18778;47.610;9.776;2023-07-13T14:33:48;28.40;99.90
7920;DHT22;18778;47.610;9.776;2023-07-13T14:36:26;27.60;99.90
7920;DHT22;18778;47.610;9.776;2023-07-13T14:38:52;27.00;99.90
7920;DHT22;18778;47.610;9.776;2023-07-13T14:41:19;27.30;99.90
7920;DHT22;18778;47.610;9.776;2023-07-13T14:43:44;27.90;99.90
7920;DHT22;18778;47.610;9.776;2023-07-13T14:46:30;29.00;99.90
7920;DHT22;18778;47.610;9.776;2023-07-13T14:51:49;30.20;99.90
7920;DHT22;18778;47.610;9.776;2023-07-13T14:54:15;31.70;95.00
7920;DHT22;18778;47.610;9.776;2023-07-13T14:56:40;32.90;93.10
7920;DHT22;18778;47.610;9.776;2023-07-13T14:59:06;33.70;86.20
7920;DHT22;18778;47.610;9.776;2023-07-13T15:01:34;34.70;81.70
7920;DHT22;18778;47.610;9.776;2023-07-13T15:04:00;34.30;82.20
7920;DHT22;18778;47.610;9.776;2023-07-13T15:06:26;33.80;82.30
7920;DHT22;18778;47.610;9.776;2023-07-13T15:08:51;33.60;80.60
7920;DHT22;18778;47.610;9.776;2023-07-13T15:11:17;34.10;85.00
7920;DHT22;18778;47.610;9.776;2023-07-13T15:13:43;34.30;75.60
7920;DHT22;18778;47.610;9.776;2023-07-13T15:16:18;34.40;78.90
7920;DHT22;18778;47.610;9.776;2023-07-13T15:18:46;34.90;75.50
7920;DHT22;18778;47.610;9.776;2023-07-13T15:21:24;35.40;77.70
7920;DHT22;18778;47.610;9.776;2023-07-13T15:23:50;35.70;74.20
7920;DHT22;18778;47.610;9.776;2023-07-13T15:26:17;35.60;74.90
7920;DHT22;18778;47.610;9.776;2023-07-13T15:28:44;34.60;72.10
7920;DHT22;18778;47.610;9.776;2023-07-13T15:31:36;33.20;75.70
7920;DHT22;18778;47.610;9.776;2023-07-13T15:34:11;32.70;76.00
7920;DHT22;18778;47.610;9.776;2023-07-13T15:36:37;32.30;73.60
7920;DHT22;18778;47.610;9.776;2023-07-13T15:39:03;32.20;73.30
7920;DHT22;18778;47.610;9.776;2023-07-13T15:41:29;32.40;74.40
7920;DHT22;18778;47.610;9.776;2023-07-13T15:43:59;31.90;73.20
7920;DHT22;18778;47.610;9.776;2023-07-13T15:46:25;31.40;73.50
7920;DHT22;18778;47.610;9.776;2023-07-13T15:48:53;31.90;73.40
7920;DHT22;18778;47.610;9.776;2023-07-13T15:53:47;33.20;75.10
7920;DHT22;18778;47.610;9.776;2023-07-13T15:56:22;33.30;75.10
7920;DHT22;18778;47.610;9.776;2023-07-13T15:58:49;33.80;73.80
7920;DHT22;18778;47.610;9.776;2023-07-13T16:01:15;34.40;70.00
7920;DHT22;18778;47.610;9.776;2023-07-13T16:03:41;35.00;71.80
7920;DHT22;18778;47.610;9.776;2023-07-13T16:06:22;35.40;70.50
7920;DHT22;18778;47.610;9.776;2023-07-13T16:08:49;36.00;68.40
7920;DHT22;18778;47.610;9.776;2023-07-13T16:11:29;35.60;64.70
7920;DHT22;18778;47.610;9.776;2023-07-13T16:13:57;35.60;64.60
7920;DHT22;18778;47.610;9.776;2023-07-13T16:16:28;35.80;66.40
7920;DHT22;18778;47.610;9.776;2023-07-13T16:18:55;35.50;65.50
7920;DHT22;18778;47.610;9.776;2023-07-13T16:21:23;35.10;66.00
7920;DHT22;18778;47.610;9.776;2023-07-13T16:23:50;35.20;66.80
7920;DHT22;18778;47.610;9.776;2023-07-13T16:26:29;35.20;65.00
7920;DHT22;18778;47.610;9.776;2023-07-13T16:29:14;34.70;64.70
7920;DHT22;18778;47.610;9.776;2023-07-13T16:31:41;34.50;63.30
7920;DHT22;18778;47.610;9.776;2023-07-13T16:34:07;34.40;66.10
7920;DHT22;18778;47.610;9.776;2023-07-13T16:36:35;34.40;66.40
7920;DHT22;18778;47.610;9.776;2023-07-13T16:39:01;34.30;66.80
7920;DHT22;18778;47.610;9.776;2023-07-13T16:41:30;34.40;66.40
7920;DHT22;18778;47.610;9.776;2023-07-13T16:43:55;34.60;67.30
7920;DHT22;18778;47.610;9.776;2023-07-13T16:46:22;34.50;65.40
7920;DHT22;18778;47.610;9.776;2023-07-13T16:48:49;34.70;65.30
7920;DHT22;18778;47.610;9.776;2023-07-13T16:51:15;34.90;67.70
7920;DHT22;18778;47.610;9.776;2023-07-13T16:53:40;34.80;65.90
7920;DHT22;18778;47.610;9.776;2023-07-13T16:56:18;34.60;66.00